Time;durP1;ratioP1;P1;durP2;ratioP2;P2;SDS_P1;SDS_P2;PMS_P1;PMS_P2;Temp;Humidity;BMP_temperature;BMP_pressure;BME280_temperature;BME280_humidity;BME280_pressure;Samples;Min_cycle;Max_cycle;Signal;HPM_P1;HPM_P2
2023/11/04 00:00:05;;;;;;;12.52;3.30;;;14.80;62.50;;;;;;349731;28;992;-58
2023/11/04 00:00:16;;;;;;;13.25;3.30;;;14.80;62.40;;;;;;349840;28;1046;-57
2023/11/04 00:00:27;;;;;;;12.82;3.22;;;14.80;62.30;;;;;;349779;28;1617;-57
2023/11/04 00:00:38;;;;;;;12.30;3.20;;;14.80;62.30;;;;;;349868;28;896;-57
2023/11/04 00:00:49;;;;;;;11.18;3.28;;;14.90;62.20;;;;;;349863;28;1110;-56
2023/11/04 00:00:59;;;;;;;10.48;3.35;;;14.90;62.20;;;;;;349799;28;971;-58
2023/11/04 00:01:11;;;;;;;10.75;3.40;;;14.90;62.20;;;;;;349865;28;852;-57
2023/11/04 00:01:22;;;;;;;11.18;3.50;;;14.90;62.10;;;;;;349868;28;1089;-57
2023/11/04 00:01:34;;;;;;;11.57;3.53;;;14.90;62.10;;;;;;349821;28;1619;-58
2023/11/04 00:01:44;;;;;;;10.93;3.40;;;14.90;62.10;;;;;;349885;28;962;-57
2023/11/04 00:01:55;;;;;;;11.25;3.33;;;14.90;62.20;;;;;;349776;28;1031;-57
2023/11/04 00:02:06;;;;;;;11.45;3.28;;;14.90;62.20;;;;;;349846;28;1149;-57
2023/11/04 00:02:17;;;;;;;13.03;3.20;;;15.00;62.20;;;;;;349915;28;876;-57
2023/11/04 00:02:28;;;;;;;13.48;3.25;;;14.90;62.10;;;;;;349878;28;1102;-60
2023/11/04 00:02:39;;;;;;;14.10;3.15;;;14.90;62.10;;;;;;349860;28;1284;-58
2023/11/04 00:02:49;;;;;;;14.10;3.33;;;14.90;62.40;;;;;;349775;28;1156;-57
2023/11/04 00:03:00;;;;;;;14.02;3.28;;;14.90;62.30;;;;;;349892;28;1095;-57
2023/11/04 00:03:11;;;;;;;11.40;3.40;;;15.00;62.20;;;;;;349813;28;1114;-58
2023/11/04 00:03:22;;;;;;;10.80;3.40;;;14.90;62.20;;;;;;349944;28;817;-57
2023/11/04 00:03:32;;;;;;;12.00;3.67;;;14.90;62.20;;;;;;349884;28;1792;-58
2023/11/04 00:03:44;;;;;;;12.32;3.53;;;15.00;62.20;;;;;;349801;28;1103;-58
2023/11/04 00:03:55;;;;;;;12.45;3.78;;;15.00;62.20;;;;;;349863;28;991;-57
2023/11/04 00:04:06;;;;;;;11.70;3.80;;;14.90;62.00;;;;;;349847;28;1177;-57
2023/11/04 00:04:17;;;;;;;11.45;3.58;;;14.90;61.90;;;;;;349886;28;1035;-58
2023/11/04 00:04:28;;;;;;;11.13;3.25;;;14.90;61.90;;;;;;349780;28;1468;-57
2023/11/04 00:04:39;;;;;;;11.43;3.20;;;14.90;61.90;;;;;;349901;28;1004;-57
2023/11/04 00:04:51;;;;;;;12.80;3.22;;;14.80;62.10;;;;;;349846;28;1336;-57
2023/11/04 00:05:01;;;;;;;12.85;3.15;;;14.80;62.20;;;;;;349802;28;1126;-58
2023/11/04 00:05:12;;;;;;;12.77;2.97;;;14.80;62.30;;;;;;349790;28;1329;-57
2023/11/04 00:05:23;;;;;;;11.68;3.15;;;14.80;62.40;;;;;;349858;28;1118;-57
2023/11/04 00:05:34;;;;;;;11.97;3.47;;;14.80;62.30;;;;;;349868;28;1010;-57
2023/11/04 00:05:45;;;;;;;13.65;3.75;;;14.80;62.30;;;;;;349887;28;876;-57
2023/11/04 00:05:56;;;;;;;15.02;3.72;;;14.80;62.40;;;;;;349792;28;1114;-57
2023/11/04 00:06:07;;;;;;;13.35;3.40;;;14.70;62.40;;;;;;349869;28;904;-57
2023/11/04 00:06:18;;;;;;;12.55;3.40;;;14.70;62.50;;;;;;349841;28;1150;-57
2023/11/04 00:06:29;;;;;;;11.85;3.45;;;14.70;62.60;;;;;;349855;28;868;-59
2023/11/04 00:06:40;;;;;;;12.65;3.55;;;14.70;62.60;;;;;;349744;28;1932;-57
2023/11/04 00:06:50;;;;;;;12.30;3.33;;;14.70;62.70;;;;;;349832;28;1091;-57
2023/11/04 00:07:01;;;;;;;11.25;2.90;;;14.70;62.80;;;;;;349844;28;1051;-59
2023/11/04 00:07:12;;;;;;;11.63;2.90;;;14.70;62.90;;;;;;349866;28;1019;-57
2023/11/04 00:07:23;;;;;;;12.38;3.22;;;14.70;62.90;;;;;;349736;28;1011;-57
2023/11/04 00:07:34;;;;;;;15.48;3.75;;;14.70;62.80;;;;;;349876;28;968;-58
2023/11/04 00:07:45;;;;;;;15.25;3.55;;;14.80;62.70;;;;;;349807;28;1028;-57
2023/11/04 00:07:55;;;;;;;13.63;3.40;;;14.80;62.70;;;;;;349905;28;849;-57
2023/11/04 00:08:06;;;;;;;11.90;3.15;;;14.80;62.60;;;;;;349816;28;1150;-57
2023/11/04 00:08:17;;;;;;;12.43;3.38;;;14.80;62.50;;;;;;349716;28;1519;-57
2023/11/04 00:08:27;;;;;;;13.55;3.45;;;14.80;62.50;;;;;;349867;28;1027;-57
2023/11/04 00:08:40;;;;;;;13.03;3.73;;;14.80;62.50;;;;;;349832;28;1078;-57
2023/11/04 00:08:52;;;;;;;14.10;3.70;;;14.80;62.50;;;;;;349882;28;896;-57
2023/11/04 00:09:03;;;;;;;14.32;3.35;;;14.80;62.50;;;;;;349843;28;1046;-57
2023/11/04 00:09:13;;;;;;;14.63;3.28;;;14.80;62.40;;;;;;349733;28;1154;-58
2023/11/04 00:09:24;;;;;;;14.73;3.47;;;14.80;62.20;;;;;;349903;28;884;-58
2023/11/04 00:09:35;;;;;;;16.20;3.65;;;14.80;62.10;;;;;;349842;28;1000;-57
2023/11/04 00:09:45;;;;;;;15.52;3.60;;;14.80;62.10;;;;;;349826;28;1114;-57
2023/11/04 00:09:56;;;;;;;14.98;3.70;;;14.80;62.00;;;;;;349864;28;1845;-57
2023/11/04 00:10:08;;;;;;;15.03;3.70;;;14.80;62.10;;;;;;349804;28;1143;-58
2023/11/04 00:10:18;;;;;;;15.63;3.80;;;14.80;62.10;;;;;;349866;28;1098;-57
2023/11/04 00:10:30;;;;;;;13.35;3.80;;;14.80;62.20;;;;;;349861;28;1345;-57
2023/11/04 00:10:41;;;;;;;13.02;4.07;;;14.80;62.50;;;;;;349826;28;1087;-57
2023/11/04 00:10:52;;;;;;;14.30;4.00;;;14.70;62.40;;;;;;349804;28;1201;-57
2023/11/04 00:11:03;;;;;;;15.32;4.05;;;14.80;62.40;;;;;;349803;28;1020;-57
2023/11/04 00:11:14;;;;;;;14.98;3.95;;;14.70;62.40;;;;;;349891;28;868;-58
2023/11/04 00:11:26;;;;;;;14.73;3.90;;;14.70;62.40;;;;;;349812;28;1549;-57
2023/11/04 00:11:37;;;;;;;14.88;3.63;;;14.70;62.50;;;;;;349828;28;923;-58
2023/11/04 00:11:48;;;;;;;12.07;3.30;;;14.80;62.60;;;;;;349878;28;888;-57
2023/11/04 00:11:58;;;;;;;12.18;3.22;;;14.80;62.50;;;;;;349730;28;1237;-57
2023/11/04 00:12:09;;;;;;;13.60;3.53;;;14.80;62.50;;;;;;349847;28;932;-57
2023/11/04 00:12:20;;;;;;;14.52;3.75;;;14.80;62.40;;;;;;349828;28;856;-56
2023/11/04 00:12:32;;;;;;;14.80;3.55;;;14.80;62.40;;;;;;349880;28;915;-57
2023/11/04 00:12:43;;;;;;;14.13;3.50;;;14.80;62.30;;;;;;349879;28;1000;-57
2023/11/04 00:12:54;;;;;;;12.13;3.42;;;14.80;62.40;;;;;;349825;28;972;-57
2023/11/04 00:13:06;;;;;;;14.20;3.95;;;14.80;62.40;;;;;;349781;28;1526;-57
2023/11/04 00:13:17;;;;;;;14.00;3.92;;;14.80;62.50;;;;;;349849;28;1024;-57
2023/11/04 00:13:28;;;;;;;15.45;3.95;;;14.80;62.50;;;;;;349746;28;1043;-58
2023/11/04 00:13:38;;;;;;;15.32;3.60;;;14.80;62.40;;;;;;349863;28;1502;-57
2023/11/04 00:13:49;;;;;;;15.18;3.45;;;14.80;62.30;;;;;;349784;28;1023;-57
2023/11/04 00:14:00;;;;;;;14.87;3.63;;;14.80;62.30;;;;;;349888;28;1027;-57
2023/11/04 00:14:11;;;;;;;13.48;3.65;;;14.90;62.40;;;;;;349721;28;2638;-58
2023/11/04 00:14:21;;;;;;;13.30;3.80;;;14.90;62.30;;;;;;349893;28;817;-57
2023/11/04 00:14:32;;;;;;;13.25;3.67;;;14.80;62.20;;;;;;349883;28;1097;-57
2023/11/04 00:14:43;;;;;;;15.48;3.72;;;14.90;62.10;;;;;;349823;28;1417;-57
2023/11/04 00:14:53;;;;;;;13.83;3.43;;;14.90;62.10;;;;;;349768;28;1007;-57
2023/11/04 00:15:05;;;;;;;14.13;3.33;;;14.90;62.00;;;;;;349849;28;1035;-57
2023/11/04 00:15:16;;;;;;;13.13;3.25;;;14.90;62.10;;;;;;349646;28;1247;-57
2023/11/04 00:15:27;;;;;;;14.55;3.80;;;14.90;62.10;;;;;;349906;28;968;-57
2023/11/04 00:15:37;;;;;;;13.63;3.90;;;14.90;62.10;;;;;;349744;28;1521;-58
2023/11/04 00:15:48;;;;;;;12.93;3.67;;;14.90;62.10;;;;;;349886;28;829;-57
2023/11/04 00:15:59;;;;;;;13.48;3.55;;;15.00;62.20;;;;;;349861;28;849;-56
2023/11/04 00:16:12;;;;;;;13.63;3.67;;;14.90;62.10;;;;;;349841;28;793;-58
2023/11/04 00:16:23;;;;;;;13.68;4.25;;;15.00;62.10;;;;;;349745;28;1910;-57
2023/11/04 00:16:34;;;;;;;12.57;3.83;;;15.00;62.00;;;;;;349879;28;1019;-57
2023/11/04 00:16:46;;;;;;;13.25;3.58;;;14.90;61.90;;;;;;349876;28;964;-58
2023/11/04 00:16:56;;;;;;;12.60;3.30;;;14.80;61.80;;;;;;349696;28;1020;-57
2023/11/04 00:17:07;;;;;;;14.13;3.37;;;14.70;62.00;;;;;;349829;28;1138;-59
2023/11/04 00:17:18;;;;;;;17.05;4.00;;;14.70;62.20;;;;;;349867;28;944;-58
2023/11/04 00:17:28;;;;;;;18.00;4.22;;;14.70;62.20;;;;;;349865;28;1075;-57
2023/11/04 00:17:39;;;;;;;19.20;4.68;;;14.70;62.30;;;;;;349810;28;847;-58
2023/11/04 00:17:51;;;;;;;16.77;4.30;;;14.70;62.30;;;;;;349819;28;1161;-57
2023/11/04 00:18:01;;;;;;;16.40;4.03;;;14.70;62.30;;;;;;349885;28;956;-57
2023/11/04 00:18:12;;;;;;;13.05;3.53;;;14.70;62.30;;;;;;349834;28;1625;-57
2023/11/04 00:18:23;;;;;;;12.60;3.33;;;14.70;62.30;;;;;;349769;28;1923;-57
2023/11/04 00:18:34;;;;;;;12.47;3.40;;;14.80;62.30;;;;;;349837;28;1418;-57
2023/11/04 00:18:45;;;;;;;13.20;3.40;;;14.80;62.30;;;;;;349784;28;912;-57
2023/11/04 00:18:56;;;;;;;14.43;3.85;;;14.80;62.30;;;;;;349858;28;983;-57
2023/11/04 00:19:06;;;;;;;16.10;4.20;;;14.80;62.30;;;;;;349797;28;1039;-57
2023/11/04 00:19:18;;;;;;;18.05;4.40;;;14.80;62.30;;;;;;349860;28;1023;-57
2023/11/04 00:19:28;;;;;;;17.25;4.00;;;14.90;62.40;;;;;;349770;28;1136;-57
2023/11/04 00:19:39;;;;;;;15.80;3.90;;;14.80;62.30;;;;;;349868;28;845;-57
2023/11/04 00:19:50;;;;;;;14.63;3.72;;;14.80;62.30;;;;;;349756;28;1035;-57
2023/11/04 00:20:02;;;;;;;13.85;3.75;;;14.90;62.40;;;;;;349886;28;849;-57
2023/11/04 00:20:13;;;;;;;12.52;3.80;;;14.90;62.40;;;;;;349738;28;1860;-57
2023/11/04 00:20:26;;;;;;;12.10;3.85;;;14.90;62.30;;;;;;349797;28;1381;-57
2023/11/04 00:20:37;;;;;;;12.88;3.55;;;14.90;62.40;;;;;;349771;28;1027;-57
2023/11/04 00:20:48;;;;;;;13.60;3.60;;;14.90;62.40;;;;;;349894;28;797;-57
2023/11/04 00:20:58;;;;;;;12.93;3.70;;;14.90;62.40;;;;;;349780;28;1027;-57
2023/11/04 00:21:10;;;;;;;12.30;3.80;;;14.90;62.30;;;;;;349909;28;887;-58
2023/11/04 00:21:20;;;;;;;13.57;3.80;;;14.90;62.20;;;;;;349784;28;1790;-58
2023/11/04 00:21:32;;;;;;;14.30;3.80;;;14.90;62.10;;;;;;349837;28;821;-57
2023/11/04 00:21:43;;;;;;;13.15;3.95;;;14.90;62.10;;;;;;349770;28;916;-58
2023/11/04 00:21:55;;;;;;;14.02;3.95;;;15.00;62.10;;;;;;349854;28;1098;-58
2023/11/04 00:22:06;;;;;;;15.70;3.90;;;15.00;62.10;;;;;;349710;28;1337;-58
2023/11/04 00:22:17;;;;;;;16.63;3.88;;;15.00;62.10;;;;;;349859;28;1814;-57
2023/11/04 00:22:29;;;;;;;17.77;4.13;;;15.00;62.10;;;;;;349756;28;1316;-57
2023/11/04 00:22:40;;;;;;;16.40;3.92;;;15.00;62.00;;;;;;349869;28;924;-58
2023/11/04 00:22:51;;;;;;;14.03;3.67;;;15.00;62.10;;;;;;349777;28;1078;-58
2023/11/04 00:23:03;;;;;;;12.55;3.47;;;15.00;62.10;;;;;;349835;28;1083;-57
2023/11/04 00:23:13;;;;;;;13.25;3.50;;;15.00;62.20;;;;;;349809;28;1114;-58
2023/11/04 00:23:24;;;;;;;14.52;3.72;;;15.00;62.10;;;;;;349809;28;1036;-56
2023/11/04 00:23:35;;;;;;;16.45;4.03;;;15.00;62.00;;;;;;349802;28;1162;-57
2023/11/04 00:23:46;;;;;;;17.20;4.32;;;15.00;62.00;;;;;;349871;28;1054;-57
2023/11/04 00:23:57;;;;;;;17.07;4.40;;;15.00;62.00;;;;;;349676;28;1324;-58
2023/11/04 00:24:11;;;;;;;15.68;4.18;;;15.00;62.00;;;;;;349827;28;862;-60
2023/11/04 00:24:22;;;;;;;14.95;3.95;;;15.00;62.00;;;;;;349697;28;1012;-58
2023/11/04 00:24:33;;;;;;;13.93;3.87;;;15.00;62.00;;;;;;349840;28;963;-57
2023/11/04 00:24:43;;;;;;;15.27;3.85;;;15.00;62.00;;;;;;349832;28;956;-57
2023/11/04 00:24:54;;;;;;;14.50;3.70;;;15.00;62.00;;;;;;349770;28;1134;-57
2023/11/04 00:25:05;;;;;;;18.23;3.92;;;15.00;61.90;;;;;;349812;28;1274;-59
2023/11/04 00:25:16;;;;;;;19.70;4.07;;;15.00;61.90;;;;;;349781;28;1127;-56
2023/11/04 00:25:27;;;;;;;20.80;4.22;;;15.00;62.00;;;;;;349766;28;1070;-57
2023/11/04 00:25:38;;;;;;;16.02;3.90;;;15.00;62.10;;;;;;349717;28;1534;-58
2023/11/04 00:25:49;;;;;;;14.38;3.67;;;15.00;62.10;;;;;;349863;28;992;-57
2023/11/04 00:26:00;;;;;;;14.18;3.70;;;15.00;62.10;;;;;;349756;28;1121;-58
2023/11/04 00:26:11;;;;;;;16.27;3.90;;;15.00;62.10;;;;;;349883;28;781;-57
2023/11/04 00:26:22;;;;;;;15.65;3.75;;;15.00;62.10;;;;;;349843;28;916;-58
2023/11/04 00:26:32;;;;;;;16.42;3.85;;;15.00;62.10;;;;;;349777;28;995;-59
2023/11/04 00:26:43;;;;;;;13.57;3.65;;;15.00;62.20;;;;;;349729;28;1590;-57
2023/11/04 00:26:54;;;;;;;14.30;3.70;;;15.00;62.40;;;;;;349874;28;1034;-57
2023/11/04 00:27:05;;;;;;;13.77;3.67;;;15.00;62.50;;;;;;349713;28;1135;-58
2023/11/04 00:27:16;;;;;;;13.98;3.88;;;15.00;62.40;;;;;;349797;28;1062;-57
2023/11/04 00:27:26;;;;;;;13.83;3.80;;;15.00;62.40;;;;;;349803;28;1256;-58
2023/11/04 00:27:37;;;;;;;15.23;4.00;;;15.00;62.30;;;;;;349773;28;948;-57
2023/11/04 00:27:48;;;;;;;14.60;3.83;;;15.00;62.30;;;;;;349826;28;1030;-58
2023/11/04 00:28:01;;;;;;;14.57;3.70;;;15.00;62.30;;;;;;349846;28;1031;-58
2023/11/04 00:28:11;;;;;;;16.08;3.80;;;15.00;62.20;;;;;;349825;28;1066;-57
2023/11/04 00:28:22;;;;;;;15.80;3.70;;;15.00;62.10;;;;;;349718;28;999;-58
2023/11/04 00:28:33;;;;;;;15.20;3.92;;;15.00;62.20;;;;;;349906;28;880;-57
2023/11/04 00:28:44;;;;;;;16.55;4.13;;;15.00;62.20;;;;;;349857;28;1019;-58
2023/11/04 00:28:54;;;;;;;17.00;4.30;;;15.00;62.20;;;;;;349849;28;1154;-57
2023/11/04 00:29:05;;;;;;;15.33;3.90;;;15.00;62.20;;;;;;349702;28;1162;-57
2023/11/04 00:29:16;;;;;;;13.35;4.05;;;15.00;62.20;;;;;;349814;28;999;-58
2023/11/04 00:29:27;;;;;;;14.77;3.78;;;15.00;62.20;;;;;;349749;28;1674;-57
2023/11/04 00:29:37;;;;;;;16.30;3.80;;;15.00;62.20;;;;;;349888;28;865;-57
2023/11/04 00:29:48;;;;;;;16.35;4.00;;;15.00;62.20;;;;;;349741;28;1042;-57
2023/11/04 00:29:59;;;;;;;16.13;4.17;;;15.00;62.20;;;;;;349854;28;994;-58
2023/11/04 00:30:10;;;;;;;17.83;4.28;;;15.00;62.10;;;;;;349824;28;887;-59
2023/11/04 00:30:21;;;;;;;19.48;4.40;;;15.00;62.00;;;;;;349793;28;1439;-57
2023/11/04 00:30:31;;;;;;;20.05;4.35;;;15.00;62.00;;;;;;349796;28;1046;-57
2023/11/04 00:30:42;;;;;;;19.50;4.32;;;15.00;62.10;;;;;;349848;28;992;-57
2023/11/04 00:30:53;;;;;;;18.63;3.97;;;15.00;62.20;;;;;;349833;28;1071;-58
2023/11/04 00:31:04;;;;;;;18.58;4.18;;;15.00;62.30;;;;;;349834;28;960;-57
2023/11/04 00:31:14;;;;;;;16.80;4.20;;;15.00;62.30;;;;;;349721;28;1102;-58
2023/11/04 00:31:25;;;;;;;15.43;4.38;;;15.00;62.30;;;;;;349831;28;1558;-57
2023/11/04 00:31:36;;;;;;;13.50;4.13;;;14.90;62.40;;;;;;349803;28;1365;-58
2023/11/04 00:31:47;;;;;;;12.53;3.70;;;15.00;62.40;;;;;;349877;28;1062;-58
2023/11/04 00:31:58;;;;;;;12.55;3.53;;;14.90;62.40;;;;;;349767;28;1002;-58
2023/11/04 00:32:08;;;;;;;15.25;3.75;;;15.00;62.30;;;;;;349851;28;865;-58
2023/11/04 00:32:19;;;;;;;18.27;4.03;;;15.00;62.50;;;;;;349858;28;841;-57
2023/11/04 00:32:30;;;;;;;17.35;3.85;;;14.90;62.60;;;;;;349799;28;1034;-58
2023/11/04 00:32:41;;;;;;;14.98;3.80;;;15.00;62.60;;;;;;349694;28;1570;-58
2023/11/04 00:32:51;;;;;;;14.20;3.70;;;15.00;62.40;;;;;;349844;28;869;-58
2023/11/04 00:33:02;;;;;;;13.90;3.92;;;14.90;62.40;;;;;;349884;28;1030;-58
2023/11/04 00:33:14;;;;;;;15.45;4.07;;;14.90;62.40;;;;;;349777;28;1368;-56
2023/11/04 00:33:24;;;;;;;17.05;4.53;;;14.90;62.50;;;;;;349725;28;1032;-58
2023/11/04 00:33:35;;;;;;;17.23;4.50;;;14.90;62.60;;;;;;349790;28;1578;-57
2023/11/04 00:33:46;;;;;;;15.60;4.32;;;14.90;62.70;;;;;;349778;28;1217;-57
2023/11/04 00:33:57;;;;;;;12.98;3.78;;;14.90;62.80;;;;;;349758;28;1085;-58
2023/11/04 00:34:08;;;;;;;13.52;3.92;;;14.90;62.80;;;;;;349815;28;829;-58
2023/11/04 00:34:18;;;;;;;15.85;3.95;;;14.90;62.80;;;;;;349828;28;1042;-57
2023/11/04 00:34:29;;;;;;;16.48;4.28;;;14.90;62.70;;;;;;349719;28;1104;-57
2023/11/04 00:34:41;;;;;;;14.63;3.90;;;15.00;62.60;;;;;;349784;28;1349;-57
2023/11/04 00:34:52;;;;;;;13.90;3.90;;;14.90;62.60;;;;;;349798;28;1510;-58
2023/11/04 00:35:04;;;;;;;15.33;3.83;;;15.00;62.60;;;;;;349792;28;878;-57
2023/11/04 00:35:15;;;;;;;14.90;3.63;;;14.90;62.50;;;;;;349743;28;1193;-58
2023/11/04 00:35:26;;;;;;;15.23;3.60;;;14.90;62.60;;;;;;349860;28;1034;-58
2023/11/04 00:35:37;;;;;;;12.52;3.42;;;15.00;62.60;;;;;;349772;28;906;-57
2023/11/04 00:35:49;;;;;;;13.90;3.58;;;15.00;62.70;;;;;;349855;28;869;-58
2023/11/04 00:36:01;;;;;;;14.90;3.80;;;15.00;62.80;;;;;;349831;28;1097;-58
2023/11/04 00:36:13;;;;;;;15.70;3.75;;;15.00;62.80;;;;;;349663;28;1548;-58
2023/11/04 00:36:23;;;;;;;15.02;3.67;;;15.00;62.90;;;;;;349702;28;1980;-57
2023/11/04 00:36:34;;;;;;;13.88;3.65;;;15.00;62.70;;;;;;349829;28;1817;-58
2023/11/04 00:36:45;;;;;;;14.52;3.85;;;15.00;62.50;;;;;;349740;28;1122;-58
2023/11/04 00:36:56;;;;;;;15.60;4.00;;;14.90;62.40;;;;;;349890;28;876;-57
2023/11/04 00:37:06;;;;;;;17.58;4.30;;;14.80;62.50;;;;;;349842;28;868;-57
2023/11/04 00:37:17;;;;;;;16.07;4.30;;;14.80;62.70;;;;;;349773;28;1094;-57
2023/11/04 00:37:28;;;;;;;15.75;4.20;;;14.80;62.80;;;;;;349839;28;896;-57
2023/11/04 00:37:39;;;;;;;14.43;4.00;;;14.80;62.90;;;;;;349753;28;1055;-58
2023/11/04 00:37:49;;;;;;;15.35;3.92;;;14.80;62.90;;;;;;349771;28;1831;-57
2023/11/04 00:38:00;;;;;;;14.73;3.90;;;14.80;63.00;;;;;;349893;28;809;-57
2023/11/04 00:38:11;;;;;;;15.15;3.83;;;14.80;63.10;;;;;;349758;28;1567;-58
2023/11/04 00:38:21;;;;;;;15.23;4.00;;;14.80;63.00;;;;;;349841;28;1047;-55
2023/11/04 00:38:32;;;;;;;16.40;4.20;;;14.80;63.00;;;;;;349868;28;904;-57
2023/11/04 00:38:43;;;;;;;15.70;4.28;;;14.80;63.00;;;;;;349785;28;1026;-58
2023/11/04 00:38:54;;;;;;;15.07;4.30;;;14.80;63.10;;;;;;349736;28;916;-57
2023/11/04 00:39:05;;;;;;;13.45;4.15;;;14.80;63.00;;;;;;349663;28;1917;-57
2023/11/04 00:39:15;;;;;;;15.50;4.18;;;14.80;63.00;;;;;;349835;28;1039;-58
2023/11/04 00:39:27;;;;;;;16.17;3.90;;;14.80;63.00;;;;;;349838;28;927;-57
2023/11/04 00:39:38;;;;;;;14.98;3.95;;;14.80;63.10;;;;;;349729;28;1015;-57
2023/11/04 00:39:49;;;;;;;14.00;4.07;;;14.80;63.10;;;;;;349870;28;872;-56
2023/11/04 00:40:01;;;;;;;13.50;4.20;;;14.80;63.00;;;;;;349791;28;1128;-58
2023/11/04 00:40:12;;;;;;;15.55;4.07;;;14.90;63.10;;;;;;349771;28;1540;-57
2023/11/04 00:40:22;;;;;;;16.48;4.20;;;14.90;63.00;;;;;;349835;28;978;-57
2023/11/04 00:40:33;;;;;;;19.10;4.32;;;14.90;63.00;;;;;;349708;28;1178;-57
2023/11/04 00:40:44;;;;;;;17.38;4.13;;;14.90;63.00;;;;;;349803;28;996;-57
2023/11/04 00:40:55;;;;;;;17.77;4.17;;;14.80;63.00;;;;;;349784;28;1627;-57
2023/11/04 00:41:06;;;;;;;15.60;4.10;;;14.90;63.10;;;;;;349768;28;1123;-58
2023/11/04 00:41:20;;;;;;;17.58;4.75;;;14.90;63.00;;;;;;349786;28;1283;-57
2023/11/04 00:41:32;;;;;;;15.70;4.63;;;14.80;62.90;;;;;;349705;28;1114;-57
2023/11/04 00:41:43;;;;;;;16.75;4.43;;;14.80;63.00;;;;;;349775;28;1181;-57
2023/11/04 00:41:54;;;;;;;18.17;4.45;;;14.90;63.00;;;;;;349836;28;1019;-57
2023/11/04 00:42:05;;;;;;;18.85;4.32;;;14.90;62.90;;;;;;349816;28;1070;-57
2023/11/04 00:42:16;;;;;;;16.67;4.15;;;14.90;63.00;;;;;;349829;28;786;-57
2023/11/04 00:42:26;;;;;;;13.77;4.07;;;14.90;63.00;;;;;;349746;28;1007;-57
2023/11/04 00:42:37;;;;;;;12.70;4.00;;;14.90;62.90;;;;;;349802;28;1999;-57
2023/11/04 00:42:48;;;;;;;12.83;3.90;;;14.90;62.90;;;;;;349864;28;1817;-57
2023/11/04 00:43:00;;;;;;;15.10;3.92;;;14.90;62.90;;;;;;349808;28;1087;-57
2023/11/04 00:43:11;;;;;;;14.35;3.85;;;14.90;62.90;;;;;;349827;28;1927;-57
2023/11/04 00:43:21;;;;;;;14.48;4.03;;;14.90;62.90;;;;;;349776;28;922;-58
2023/11/04 00:43:33;;;;;;;13.82;4.10;;;14.90;62.90;;;;;;349827;28;1064;-58
2023/11/04 00:43:44;;;;;;;14.25;4.22;;;14.90;63.00;;;;;;349790;28;1868;-58
2023/11/04 00:43:55;;;;;;;14.10;4.07;;;15.00;63.10;;;;;;349777;28;1114;-57
2023/11/04 00:44:06;;;;;;;15.40;3.97;;;14.90;63.10;;;;;;349852;28;980;-57
2023/11/04 00:44:16;;;;;;;18.05;3.88;;;14.90;63.10;;;;;;349734;28;1454;-57
2023/11/04 00:44:27;;;;;;;22.35;4.38;;;15.00;63.10;;;;;;349757;28;1027;-57
2023/11/04 00:44:38;;;;;;;20.45;4.18;;;15.00;63.10;;;;;;349806;28;1078;-57
2023/11/04 00:44:48;;;;;;;19.13;4.23;;;15.00;63.10;;;;;;349765;28;1158;-57
2023/11/04 00:44:59;;;;;;;15.27;3.83;;;15.00;63.10;;;;;;349732;28;1593;-58
2023/11/04 00:45:10;;;;;;;17.10;4.07;;;15.00;63.10;;;;;;349823;28;1067;-56
2023/11/04 00:45:20;;;;;;;15.85;4.03;;;15.00;63.10;;;;;;349844;28;888;-58
2023/11/04 00:45:31;;;;;;;16.70;4.20;;;15.00;63.10;;;;;;349777;28;908;-57
2023/11/04 00:45:42;;;;;;;15.63;4.10;;;15.00;63.10;;;;;;349857;28;1070;-57
2023/11/04 00:45:53;;;;;;;15.77;4.07;;;15.00;62.90;;;;;;349735;28;1154;-57
2023/11/04 00:46:03;;;;;;;15.60;3.80;;;15.00;62.80;;;;;;349802;28;1006;-56
2023/11/04 00:46:14;;;;;;;17.93;3.83;;;15.00;62.70;;;;;;349769;28;1411;-58
2023/11/04 00:46:25;;;;;;;16.50;3.80;;;15.00;62.80;;;;;;349817;28;999;-57
2023/11/04 00:46:38;;;;;;;14.60;3.80;;;15.00;62.90;;;;;;349727;28;1075;-57
2023/11/04 00:46:49;;;;;;;14.52;3.83;;;15.00;62.90;;;;;;349800;28;988;-58
2023/11/04 00:46:59;;;;;;;15.95;3.90;;;15.00;62.90;;;;;;349758;28;1646;-58
2023/11/04 00:47:10;;;;;;;16.50;3.78;;;15.00;62.90;;;;;;349747;28;926;-58
2023/11/04 00:47:21;;;;;;;15.20;3.83;;;15.00;63.00;;;;;;349827;28;967;-58
2023/11/04 00:47:31;;;;;;;15.32;3.80;;;15.00;63.10;;;;;;349827;28;1016;-57
2023/11/04 00:47:42;;;;;;;16.30;4.05;;;15.00;63.30;;;;;;349744;28;899;-57
2023/11/04 00:47:53;;;;;;;16.15;4.45;;;15.00;63.20;;;;;;349794;28;1051;-57
2023/11/04 00:48:04;;;;;;;16.13;4.50;;;15.00;63.10;;;;;;349795;28;987;-57
2023/11/04 00:48:14;;;;;;;14.43;4.25;;;15.00;63.10;;;;;;349711;28;1663;-57
2023/11/04 00:48:25;;;;;;;13.50;3.72;;;15.00;63.10;;;;;;349808;28;984;-58
2023/11/04 00:48:37;;;;;;;13.38;3.63;;;15.00;63.00;;;;;;349863;28;935;-57
2023/11/04 00:48:48;;;;;;;12.60;3.50;;;15.00;63.00;;;;;;349764;28;935;-57
2023/11/04 00:48:59;;;;;;;12.90;3.58;;;15.00;63.00;;;;;;349818;28;1019;-57
2023/11/04 00:49:10;;;;;;;14.90;3.60;;;15.00;63.00;;;;;;349690;28;1210;-57
2023/11/04 00:49:21;;;;;;;15.70;3.53;;;15.00;63.00;;;;;;349827;28;1090;-58
2023/11/04 00:49:31;;;;;;;15.07;3.70;;;15.00;63.00;;;;;;349784;28;1218;-57
2023/11/04 00:49:42;;;;;;;16.02;3.97;;;15.00;62.90;;;;;;349762;28;908;-57
2023/11/04 00:49:53;;;;;;;17.55;4.22;;;15.00;62.90;;;;;;349809;28;1027;-56
2023/11/04 00:50:05;;;;;;;15.77;4.07;;;15.00;62.90;;;;;;349775;28;967;-57
2023/11/04 00:50:16;;;;;;;15.75;4.10;;;15.00;62.90;;;;;;349754;28;1127;-58
2023/11/04 00:50:27;;;;;;;15.38;3.90;;;15.00;62.90;;;;;;349838;28;873;-58
2023/11/04 00:50:38;;;;;;;16.73;4.00;;;15.00;62.90;;;;;;349747;28;996;-58
2023/11/04 00:50:50;;;;;;;14.52;3.97;;;15.00;62.90;;;;;;349838;28;1027;-57
2023/11/04 00:51:01;;;;;;;15.18;4.25;;;15.00;62.90;;;;;;349734;28;1066;-57
2023/11/04 00:51:12;;;;;;;16.10;4.75;;;15.00;63.00;;;;;;349847;28;840;-57
2023/11/04 00:51:22;;;;;;;16.92;4.85;;;15.00;63.10;;;;;;349806;28;985;-57
2023/11/04 00:51:34;;;;;;;17.65;4.90;;;15.00;63.10;;;;;;349728;28;928;-58
2023/11/04 00:51:45;;;;;;;15.75;4.35;;;15.00;63.10;;;;;;349820;28;1003;-57
2023/11/04 00:51:55;;;;;;;15.15;3.97;;;15.00;63.20;;;;;;349717;28;1182;-57
2023/11/04 00:52:06;;;;;;;13.13;3.90;;;15.00;63.10;;;;;;349803;28;1278;-57
2023/11/04 00:52:17;;;;;;;15.23;4.37;;;15.00;63.00;;;;;;349763;28;1088;-57
2023/11/04 00:52:27;;;;;;;16.58;4.45;;;15.10;63.00;;;;;;349752;28;1028;-57
2023/11/04 00:52:38;;;;;;;17.30;4.28;;;15.00;63.10;;;;;;349801;28;992;-57
2023/11/04 00:52:49;;;;;;;15.90;4.10;;;15.00;63.00;;;;;;349771;28;1643;-57
2023/11/04 00:53:00;;;;;;;17.10;4.43;;;15.00;63.00;;;;;;349718;28;1090;-57
2023/11/04 00:53:10;;;;;;;16.70;4.43;;;15.10;63.00;;;;;;349754;28;1142;-57
2023/11/04 00:53:21;;;;;;;17.48;4.22;;;15.10;63.00;;;;;;349819;28;1039;-57
2023/11/04 00:53:32;;;;;;;16.50;4.30;;;15.10;63.00;;;;;;349660;28;1711;-57
2023/11/04 00:53:43;;;;;;;16.73;4.25;;;15.10;63.00;;;;;;349758;28;1078;-57
2023/11/04 00:53:54;;;;;;;15.35;3.97;;;15.00;63.10;;;;;;349816;28;837;-57
2023/11/04 00:54:05;;;;;;;15.13;3.72;;;15.10;63.20;;;;;;349709;28;980;-57
2023/11/04 00:54:16;;;;;;;14.15;3.90;;;15.10;63.20;;;;;;349830;28;1036;-57
2023/11/04 00:54:26;;;;;;;14.50;4.00;;;15.10;63.20;;;;;;349780;28;1157;-58
2023/11/04 00:54:38;;;;;;;15.35;4.07;;;15.10;63.20;;;;;;349704;28;1161;-58
2023/11/04 00:54:48;;;;;;;15.82;4.18;;;15.10;63.10;;;;;;349790;28;1094;-58
2023/11/04 00:54:59;;;;;;;15.45;4.00;;;15.10;63.10;;;;;;349847;28;1103;-57
2023/11/04 00:55:10;;;;;;;15.00;3.77;;;15.10;63.10;;;;;;349759;28;1129;-57
2023/11/04 00:55:21;;;;;;;16.05;3.85;;;15.10;63.00;;;;;;349808;28;1031;-58
2023/11/04 00:55:31;;;;;;;16.05;4.03;;;15.10;63.00;;;;;;349839;28;829;-57
2023/11/04 00:55:42;;;;;;;19.27;4.30;;;15.10;63.00;;;;;;349700;28;1106;-57
2023/11/04 00:55:53;;;;;;;17.67;4.20;;;15.10;63.10;;;;;;349822;28;1079;-58
2023/11/04 00:56:04;;;;;;;15.05;4.18;;;15.10;63.10;;;;;;349810;28;976;-57
2023/11/04 00:56:15;;;;;;;13.55;4.03;;;15.10;63.10;;;;;;349712;28;1121;-57
2023/11/04 00:56:26;;;;;;;13.87;3.90;;;15.10;63.20;;;;;;349759;28;1636;-57
2023/11/04 00:56:36;;;;;;;15.77;4.10;;;15.10;63.10;;;;;;349795;28;920;-57
2023/11/04 00:56:47;;;;;;;15.52;4.20;;;15.10;63.10;;;;;;349767;28;903;-57
2023/11/04 00:56:58;;;;;;;15.95;4.10;;;15.10;63.10;;;;;;349804;28;987;-57
2023/11/04 00:57:10;;;;;;;15.73;3.97;;;15.10;63.10;;;;;;349847;28;842;-58
2023/11/04 00:57:20;;;;;;;16.45;4.00;;;15.20;63.00;;;;;;349719;28;1046;-57
2023/11/04 00:57:31;;;;;;;16.75;4.40;;;15.10;63.00;;;;;;349792;28;1023;-58
2023/11/04 00:57:42;;;;;;;15.38;4.50;;;15.20;62.90;;;;;;349767;28;992;-57
2023/11/04 00:57:53;;;;;;;15.93;4.22;;;15.20;62.90;;;;;;349688;28;1166;-57
2023/11/04 00:58:04;;;;;;;16.93;4.20;;;15.20;62.80;;;;;;349825;28;864;-58